sensor_id;sensor_type;location;lat;lon;timestamp;pressure;altitude;pressure_sealevel;temperature;humidity
9277;BME280;4676;42.678;23.244;2022-08-19T00:02:00;93879.50;;;21.55;79.69
9277;BME280;4676;42.678;23.244;2022-08-19T00:04:28;93873.78;;;21.52;79.37
9277;BME280;4676;42.678;23.244;2022-08-19T00:06:55;93875.38;;;21.43;80.52
9277;BME280;4676;42.678;23.244;2022-08-19T00:09:23;93876.84;;;21.36;80.75
9277;BME280;4676;42.678;23.244;2022-08-19T00:11:51;93877.66;;;21.36;80.97
9277;BME280;4676;42.678;23.244;2022-08-19T00:14:19;93877.00;;;21.34;81.50
9277;BME280;4676;42.678;23.244;2022-08-19T00:16:47;93879.66;;;21.23;81.92
9277;BME280;4676;42.678;23.244;2022-08-19T00:19:17;93883.59;;;21.18;82.32
9277;BME280;4676;42.678;23.244;2022-08-19T00:21:44;93895.78;;;21.16;82.60
9277;BME280;4676;42.678;23.244;2022-08-19T00:24:13;93891.63;;;21.24;83.41
9277;BME280;4676;42.678;23.244;2022-08-19T00:26:41;93895.25;;;21.22;83.49
9277;BME280;4676;42.678;23.244;2022-08-19T00:29:10;93888.97;;;21.15;84.34
9277;BME280;4676;42.678;23.244;2022-08-19T00:31:37;93893.69;;;21.10;85.71
9277;BME280;4676;42.678;23.244;2022-08-19T00:34:04;93886.50;;;21.04;85.48
9277;BME280;4676;42.678;23.244;2022-08-19T00:36:32;93894.22;;;21.04;85.16
9277;BME280;4676;42.678;23.244;2022-08-19T00:38:59;93883.72;;;20.96;84.62
9277;BME280;4676;42.678;23.244;2022-08-19T00:41:27;93882.91;;;20.95;84.24
9277;BME280;4676;42.678;23.244;2022-08-19T00:44:01;93883.84;;;20.94;83.60
9277;BME280;4676;42.678;23.244;2022-08-19T00:46:29;93876.50;;;20.89;82.86
9277;BME280;4676;42.678;23.244;2022-08-19T00:48:56;93878.94;;;20.91;82.59
9277;BME280;4676;42.678;23.244;2022-08-19T00:51:24;93878.69;;;20.94;82.65
9277;BME280;4676;42.678;23.244;2022-08-19T00:53:54;93876.56;;;20.99;79.25
9277;BME280;4676;42.678;23.244;2022-08-19T00:56:22;93869.91;;;20.97;81.23
9277;BME280;4676;42.678;23.244;2022-08-19T00:58:49;93869.75;;;20.98;81.24
9277;BME280;4676;42.678;23.244;2022-08-19T01:01:16;93867.00;;;20.90;84.28
9277;BME280;4676;42.678;23.244;2022-08-19T01:03:42;93867.56;;;20.93;84.81
9277;BME280;4676;42.678;23.244;2022-08-19T01:06:09;93862.94;;;20.87;87.27
9277;BME280;4676;42.678;23.244;2022-08-19T01:08:36;93870.09;;;20.84;87.00
9277;BME280;4676;42.678;23.244;2022-08-19T01:11:04;93877.25;;;20.80;86.37
9277;BME280;4676;42.678;23.244;2022-08-19T01:13:33;93885.81;;;20.81;86.08
9277;BME280;4676;42.678;23.244;2022-08-19T01:16:03;93871.56;;;20.77;87.15
9277;BME280;4676;42.678;23.244;2022-08-19T01:18:32;93873.31;;;20.76;87.44
9277;BME280;4676;42.678;23.244;2022-08-19T01:21:08;93873.97;;;20.69;88.23
9277;BME280;4676;42.678;23.244;2022-08-19T01:23:37;93864.72;;;20.66;89.18
9277;BME280;4676;42.678;23.244;2022-08-19T01:26:11;93863.09;;;20.65;89.17
9277;BME280;4676;42.678;23.244;2022-08-19T01:28:40;93857.38;;;20.62;88.75
9277;BME280;4676;42.678;23.244;2022-08-19T01:31:13;93866.56;;;20.55;89.20
9277;BME280;4676;42.678;23.244;2022-08-19T01:33:40;93865.03;;;20.52;90.70
9277;BME280;4676;42.678;23.244;2022-08-19T01:36:10;93861.31;;;20.45;92.62
9277;BME280;4676;42.678;23.244;2022-08-19T01:38:41;93878.88;;;20.51;93.11
9277;BME280;4676;42.678;23.244;2022-08-19T01:41:09;93870.00;;;20.44;92.01
9277;BME280;4676;42.678;23.244;2022-08-19T01:43:36;93864.31;;;20.40;90.68
9277;BME280;4676;42.678;23.244;2022-08-19T01:46:03;93878.94;;;20.40;91.09
9277;BME280;4676;42.678;23.244;2022-08-19T01:48:33;93879.03;;;20.38;91.72
9277;BME280;4676;42.678;23.244;2022-08-19T01:51:00;93879.53;;;20.32;92.36
9277;BME280;4676;42.678;23.244;2022-08-19T01:53:27;93876.88;;;20.23;92.69
9277;BME280;4676;42.678;23.244;2022-08-19T01:55:56;93879.41;;;20.34;92.17
9277;BME280;4676;42.678;23.244;2022-08-19T01:58:27;93875.81;;;20.25;93.11
9277;BME280;4676;42.678;23.244;2022-08-19T02:00:55;93874.16;;;20.24;94.13
9277;BME280;4676;42.678;23.244;2022-08-19T02:03:23;93879.44;;;20.23;94.46
9277;BME280;4676;42.678;23.244;2022-08-19T02:05:54;93865.31;;;20.17;94.78
9277;BME280;4676;42.678;23.244;2022-08-19T02:08:21;93873.47;;;20.22;95.59
9277;BME280;4676;42.678;23.244;2022-08-19T02:10:48;93866.47;;;20.13;98.18
9277;BME280;4676;42.678;23.244;2022-08-19T02:13:17;93860.59;;;20.02;98.46
9277;BME280;4676;42.678;23.244;2022-08-19T02:15:44;93867.47;;;20.01;98.97
9277;BME280;4676;42.678;23.244;2022-08-19T02:18:11;93868.41;;;20.00;99.41
9277;BME280;4676;42.678;23.244;2022-08-19T02:20:39;93853.50;;;19.83;100.00
9277;BME280;4676;42.678;23.244;2022-08-19T02:23:07;93868.34;;;19.90;100.00
9277;BME280;4676;42.678;23.244;2022-08-19T02:25:34;93870.91;;;19.90;100.00
9277;BME280;4676;42.678;23.244;2022-08-19T02:28:01;93875.50;;;19.87;100.00
9277;BME280;4676;42.678;23.244;2022-08-19T02:30:29;93862.72;;;19.85;100.00
9277;BME280;4676;42.678;23.244;2022-08-19T02:32:56;93865.66;;;19.81;100.00
9277;BME280;4676;42.678;23.244;2022-08-19T02:35:23;93864.88;;;19.80;100.00
9277;BME280;4676;42.678;23.244;2022-08-19T02:37:50;93868.63;;;19.76;100.00
9277;BME280;4676;42.678;23.244;2022-08-19T02:40:34;93861.84;;;19.75;100.00
9277;BME280;4676;42.678;23.244;2022-08-19T02:43:01;93864.41;;;19.75;100.00
9277;BME280;4676;42.678;23.244;2022-08-19T02:45:33;93859.44;;;19.63;100.00
9277;BME280;4676;42.678;23.244;2022-08-19T02:47:59;93865.41;;;19.63;100.00
9277;BME280;4676;42.678;23.244;2022-08-19T02:50:26;93872.47;;;19.71;100.00
9277;BME280;4676;42.678;23.244;2022-08-19T02:52:53;93870.03;;;19.69;100.00
9277;BME280;4676;42.678;23.244;2022-08-19T02:55:20;93867.81;;;19.65;100.00
9277;BME280;4676;42.678;23.244;2022-08-19T02:57:46;93879.03;;;19.64;100.00
9277;BME280;4676;42.678;23.244;2022-08-19T03:00:14;93883.16;;;19.66;100.00
9277;BME280;4676;42.678;23.244;2022-08-19T03:02:42;93884.19;;;19.64;100.00
9277;BME280;4676;42.678;23.244;2022-08-19T03:05:09;93879.19;;;19.51;100.00
9277;BME280;4676;42.678;23.244;2022-08-19T03:07:36;93873.13;;;19.52;100.00
9277;BME280;4676;42.678;23.244;2022-08-19T03:10:04;93873.47;;;19.48;100.00
9277;BME280;4676;42.678;23.244;2022-08-19T03:12:31;93877.78;;;19.47;100.00
9277;BME280;4676;42.678;23.244;2022-08-19T03:14:57;93873.97;;;19.41;100.00
9277;BME280;4676;42.678;23.244;2022-08-19T03:17:26;93874.63;;;19.32;100.00
9277;BME280;4676;42.678;23.244;2022-08-19T03:19:55;93875.78;;;19.28;100.00
9277;BME280;4676;42.678;23.244;2022-08-19T03:22:22;93873.94;;;19.30;100.00
9277;BME280;4676;42.678;23.244;2022-08-19T03:24:50;93876.94;;;19.35;100.00
9277;BME280;4676;42.678;23.244;2022-08-19T03:27:17;93878.94;;;19.32;100.00
9277;BME280;4676;42.678;23.244;2022-08-19T03:29:44;93885.03;;;19.31;100.00
9277;BME280;4676;42.678;23.244;2022-08-19T03:32:11;93882.00;;;19.26;100.00
9277;BME280;4676;42.678;23.244;2022-08-19T03:34:38;93882.13;;;19.24;100.00
9277;BME280;4676;42.678;23.244;2022-08-19T03:37:08;93882.22;;;19.23;100.00
9277;BME280;4676;42.678;23.244;2022-08-19T03:39:38;93879.91;;;19.09;100.00
9277;BME280;4676;42.678;23.244;2022-08-19T03:42:06;93884.78;;;19.12;100.00
9277;BME280;4676;42.678;23.244;2022-08-19T03:44:33;93889.34;;;19.08;100.00
9277;BME280;4676;42.678;23.244;2022-08-19T03:47:01;93885.97;;;19.08;100.00
9277;BME280;4676;42.678;23.244;2022-08-19T03:49:31;93891.56;;;19.02;100.00
9277;BME280;4676;42.678;23.244;2022-08-19T03:51:58;93896.22;;;18.96;100.00
9277;BME280;4676;42.678;23.244;2022-08-19T03:54:28;93899.19;;;19.03;100.00
9277;BME280;4676;42.678;23.244;2022-08-19T03:56:56;93877.91;;;18.90;100.00
9277;BME280;4676;42.678;23.244;2022-08-19T03:59:29;93895.91;;;19.12;100.00
9277;BME280;4676;42.678;23.244;2022-08-19T04:01:59;93899.38;;;19.22;100.00
9277;BME280;4676;42.678;23.244;2022-08-19T04:04:26;93909.09;;;19.19;100.00
9277;BME280;4676;42.678;23.244;2022-08-19T04:06:54;93901.28;;;19.20;100.00
9277;BME280;4676;42.678;23.244;2022-08-19T04:09:20;93911.31;;;19.23;100.00
9277;BME280;4676;42.678;23.244;2022-08-19T04:11:51;93913.41;;;19.18;100.00
9277;BME280;4676;42.678;23.244;2022-08-19T04:14:20;93905.13;;;19.15;100.00
9277;BME280;4676;42.678;23.244;2022-08-19T04:16:48;93891.81;;;19.10;100.00
9277;BME280;4676;42.678;23.244;2022-08-19T04:19:17;93907.00;;;19.24;100.00
9277;BME280;4676;42.678;23.244;2022-08-19T04:21:46;93899.38;;;19.22;100.00
9277;BME280;4676;42.678;23.244;2022-08-19T04:24:13;93909.31;;;19.38;100.00
9277;BME280;4676;42.678;23.244;2022-08-19T04:26:41;93919.41;;;19.41;100.00
9277;BME280;4676;42.678;23.244;2022-08-19T04:29:11;93910.00;;;19.40;100.00
9277;BME280;4676;42.678;23.244;2022-08-19T04:31:39;93919.75;;;19.48;100.00
9277;BME280;4676;42.678;23.244;2022-08-19T04:34:07;93920.06;;;19.54;100.00
9277;BME280;4676;42.678;23.244;2022-08-19T04:36:37;93918.22;;;19.56;100.00
9277;BME280;4676;42.678;23.244;2022-08-19T04:39:08;93918.31;;;19.66;100.00
9277;BME280;4676;42.678;23.244;2022-08-19T04:41:35;93916.81;;;19.63;100.00
9277;BME280;4676;42.678;23.244;2022-08-19T04:44:20;93917.00;;;19.71;100.00
9277;BME280;4676;42.678;23.244;2022-08-19T04:46:49;93914.91;;;19.76;100.00
9277;BME280;4676;42.678;23.244;2022-08-19T04:49:18;93916.06;;;19.83;100.00
9277;BME280;4676;42.678;23.244;2022-08-19T04:51:47;93908.09;;;19.86;100.00
9277;BME280;4676;42.678;23.244;2022-08-19T04:54:15;93914.03;;;19.98;100.00
9277;BME280;4676;42.678;23.244;2022-08-19T04:56:42;93923.47;;;20.09;100.00
9277;BME280;4676;42.678;23.244;2022-08-19T04:59:09;93922.84;;;20.16;100.00
9277;BME280;4676;42.678;23.244;2022-08-19T05:01:38;93915.22;;;20.26;100.00
9277;BME280;4676;42.678;23.244;2022-08-19T05:04:06;93920.59;;;20.34;100.00
9277;BME280;4676;42.678;23.244;2022-08-19T05:06:33;93929.44;;;20.41;100.00
9277;BME280;4676;42.678;23.244;2022-08-19T05:09:01;93927.78;;;20.51;100.00
9277;BME280;4676;42.678;23.244;2022-08-19T05:11:30;93880.63;;;20.30;100.00
9277;BME280;4676;42.678;23.244;2022-08-19T05:13:57;93926.91;;;20.62;100.00
9277;BME280;4676;42.678;23.244;2022-08-19T05:16:25;93923.00;;;20.67;100.00
9277;BME280;4676;42.678;23.244;2022-08-19T05:18:54;93932.94;;;20.72;100.00
9277;BME280;4676;42.678;23.244;2022-08-19T05:21:39;93932.06;;;20.82;100.00
9277;BME280;4676;42.678;23.244;2022-08-19T05:24:24;93928.47;;;20.94;100.00
9277;BME280;4676;42.678;23.244;2022-08-19T05:26:52;93927.47;;;21.07;100.00
9277;BME280;4676;42.678;23.244;2022-08-19T05:29:23;93931.59;;;21.19;100.00
9277;BME280;4676;42.678;23.244;2022-08-19T05:31:50;93937.94;;;21.35;100.00
9277;BME280;4676;42.678;23.244;2022-08-19T05:34:20;93935.13;;;21.48;100.00
9277;BME280;4676;42.678;23.244;2022-08-19T05:36:50;93937.38;;;21.72;98.64
9277;BME280;4676;42.678;23.244;2022-08-19T05:39:23;93931.72;;;21.87;97.39
9277;BME280;4676;42.678;23.244;2022-08-19T05:41:52;93939.94;;;22.02;96.29
9277;BME280;4676;42.678;23.244;2022-08-19T05:44:19;93932.06;;;22.13;95.26
9277;BME280;4676;42.678;23.244;2022-08-19T05:46:47;93922.19;;;22.37;91.62
9277;BME280;4676;42.678;23.244;2022-08-19T05:49:20;93931.38;;;22.59;88.88
9277;BME280;4676;42.678;23.244;2022-08-19T05:51:48;93928.84;;;22.78;88.66
9277;BME280;4676;42.678;23.244;2022-08-19T05:54:15;93921.03;;;22.98;88.45
9277;BME280;4676;42.678;23.244;2022-08-19T05:56:43;93933.09;;;23.16;85.48
9277;BME280;4676;42.678;23.244;2022-08-19T05:59:10;93939.28;;;23.52;79.68
9277;BME280;4676;42.678;23.244;2022-08-19T06:01:38;93937.94;;;23.75;76.23
9277;BME280;4676;42.678;23.244;2022-08-19T06:04:05;93938.16;;;23.82;74.50
9277;BME280;4676;42.678;23.244;2022-08-19T06:06:35;93939.56;;;23.76;74.62
9277;BME280;4676;42.678;23.244;2022-08-19T06:09:02;93938.44;;;23.88;76.57
9277;BME280;4676;42.678;23.244;2022-08-19T06:11:34;93943.97;;;23.94;73.17
9277;BME280;4676;42.678;23.244;2022-08-19T06:14:02;93939.38;;;24.15;76.35
9277;BME280;4676;42.678;23.244;2022-08-19T06:16:29;93945.91;;;24.19;75.79
9277;BME280;4676;42.678;23.244;2022-08-19T06:18:59;93945.78;;;24.38;77.22
9277;BME280;4676;42.678;23.244;2022-08-19T06:21:28;93941.19;;;24.50;71.02
9277;BME280;4676;42.678;23.244;2022-08-19T06:23:56;93941.91;;;24.60;73.49
9277;BME280;4676;42.678;23.244;2022-08-19T06:26:24;93943.69;;;24.77;71.62
9277;BME280;4676;42.678;23.244;2022-08-19T06:28:51;93941.91;;;24.95;73.47
9277;BME280;4676;42.678;23.244;2022-08-19T06:31:20;93946.03;;;25.06;69.54
9277;BME280;4676;42.678;23.244;2022-08-19T06:33:48;93947.06;;;25.13;70.67
9277;BME280;4676;42.678;23.244;2022-08-19T06:36:20;93947.63;;;25.24;68.53
9277;BME280;4676;42.678;23.244;2022-08-19T06:38:58;93952.56;;;25.35;68.54
9277;BME280;4676;42.678;23.244;2022-08-19T06:41:25;93950.56;;;25.55;67.97
9277;BME280;4676;42.678;23.244;2022-08-19T06:43:52;93944.91;;;25.86;65.63
9277;BME280;4676;42.678;23.244;2022-08-19T06:46:19;93948.31;;;25.94;66.41
9277;BME280;4676;42.678;23.244;2022-08-19T06:48:46;93948.84;;;26.06;65.66
9277;BME280;4676;42.678;23.244;2022-08-19T06:51:14;93945.50;;;26.21;64.81
9277;BME280;4676;42.678;23.244;2022-08-19T06:53:44;93947.97;;;26.31;64.58
9277;BME280;4676;42.678;23.244;2022-08-19T06:56:13;93957.72;;;26.37;65.22
9277;BME280;4676;42.678;23.244;2022-08-19T06:58:40;93951.75;;;26.45;65.71
9277;BME280;4676;42.678;23.244;2022-08-19T07:01:07;93958.41;;;26.55;63.23
9277;BME280;4676;42.678;23.244;2022-08-19T07:03:36;93956.16;;;26.68;61.46
9277;BME280;4676;42.678;23.244;2022-08-19T07:06:04;93952.41;;;26.71;62.41
9277;BME280;4676;42.678;23.244;2022-08-19T07:08:32;93955.34;;;26.76;60.50
9277;BME280;4676;42.678;23.244;2022-08-19T07:10:59;93960.06;;;26.80;60.38
9277;BME280;4676;42.678;23.244;2022-08-19T07:13:27;93956.63;;;26.72;60.91
9277;BME280;4676;42.678;23.244;2022-08-19T07:15:54;93958.44;;;26.79;60.84
9277;BME280;4676;42.678;23.244;2022-08-19T07:18:21;93958.63;;;26.94;59.81
9277;BME280;4676;42.678;23.244;2022-08-19T07:20:48;93957.63;;;26.95;60.12
9277;BME280;4676;42.678;23.244;2022-08-19T07:23:15;93965.28;;;26.97;60.41
9277;BME280;4676;42.678;23.244;2022-08-19T07:25:42;93959.09;;;27.14;59.84
9277;BME280;4676;42.678;23.244;2022-08-19T07:28:08;93955.50;;;27.31;59.56
9277;BME280;4676;42.678;23.244;2022-08-19T07:30:39;93964.31;;;27.46;57.40
9277;BME280;4676;42.678;23.244;2022-08-19T07:33:06;93960.53;;;27.49;58.44
9277;BME280;4676;42.678;23.244;2022-08-19T07:35:33;93959.41;;;27.43;57.50
9277;BME280;4676;42.678;23.244;2022-08-19T07:38:00;93949.13;;;27.42;58.58
9277;BME280;4676;42.678;23.244;2022-08-19T07:40:29;93946.06;;;27.46;57.57
9277;BME280;4676;42.678;23.244;2022-08-19T07:42:56;93959.50;;;27.74;58.80
9277;BME280;4676;42.678;23.244;2022-08-19T07:45:23;93958.00;;;27.88;57.23
9277;BME280;4676;42.678;23.244;2022-08-19T07:47:51;93963.19;;;27.96;53.56
9277;BME280;4676;42.678;23.244;2022-08-19T07:50:19;93959.63;;;27.89;59.19
9277;BME280;4676;42.678;23.244;2022-08-19T07:52:47;93964.94;;;28.03;56.55
9277;BME280;4676;42.678;23.244;2022-08-19T07:55:17;93965.56;;;28.05;55.37
9277;BME280;4676;42.678;23.244;2022-08-19T07:57:44;93956.56;;;28.24;54.66
9277;BME280;4676;42.678;23.244;2022-08-19T08:00:12;93961.09;;;28.30;57.31
9277;BME280;4676;42.678;23.244;2022-08-19T08:02:39;93957.59;;;28.46;54.48
9277;BME280;4676;42.678;23.244;2022-08-19T08:05:09;93957.88;;;28.51;54.05
9277;BME280;4676;42.678;23.244;2022-08-19T08:07:54;93963.03;;;28.59;53.98
9277;BME280;4676;42.678;23.244;2022-08-19T08:10:38;93964.31;;;28.71;50.66
9277;BME280;4676;42.678;23.244;2022-08-19T08:13:05;93960.88;;;28.70;51.85
9277;BME280;4676;42.678;23.244;2022-08-19T08:15:32;93948.97;;;28.68;50.24
9277;BME280;4676;42.678;23.244;2022-08-19T08:17:58;93952.34;;;28.76;53.07
9277;BME280;4676;42.678;23.244;2022-08-19T08:20:27;93950.16;;;28.88;50.08
9277;BME280;4676;42.678;23.244;2022-08-19T08:22:53;93950.63;;;29.06;50.89
9277;BME280;4676;42.678;23.244;2022-08-19T08:25:46;93945.41;;;29.29;51.52
9277;BME280;4676;42.678;23.244;2022-08-19T08:28:13;93950.72;;;29.36;49.24
9277;BME280;4676;42.678;23.244;2022-08-19T08:30:41;93945.97;;;29.54;47.54
9277;BME280;4676;42.678;23.244;2022-08-19T08:33:09;93946.81;;;29.69;47.80
9277;BME280;4676;42.678;23.244;2022-08-19T08:35:39;93953.66;;;29.85;46.52
9277;BME280;4676;42.678;23.244;2022-08-19T08:38:07;93945.19;;;29.97;45.05
9277;BME280;4676;42.678;23.244;2022-08-19T08:40:39;93950.16;;;30.07;45.54
9277;BME280;4676;42.678;23.244;2022-08-19T08:43:14;93948.41;;;30.14;46.01
9277;BME280;4676;42.678;23.244;2022-08-19T08:45:50;93946.34;;;30.09;43.24
9277;BME280;4676;42.678;23.244;2022-08-19T08:48:22;93945.75;;;29.93;42.48
9277;BME280;4676;42.678;23.244;2022-08-19T08:50:54;93953.91;;;29.75;42.00
9277;BME280;4676;42.678;23.244;2022-08-19T08:53:23;93946.34;;;29.80;44.26
9277;BME280;4676;42.678;23.244;2022-08-19T08:55:51;93943.88;;;29.87;43.30
9277;BME280;4676;42.678;23.244;2022-08-19T08:58:21;93944.38;;;29.82;43.96
9277;BME280;4676;42.678;23.244;2022-08-19T09:00:51;93940.50;;;29.93;44.55
9277;BME280;4676;42.678;23.244;2022-08-19T09:03:20;93942.22;;;30.00;45.48
9277;BME280;4676;42.678;23.244;2022-08-19T09:05:57;93937.06;;;30.21;43.55
9277;BME280;4676;42.678;23.244;2022-08-19T09:08:34;93935.19;;;30.01;40.73
9277;BME280;4676;42.678;23.244;2022-08-19T09:11:06;93927.97;;;30.03;46.40
9277;BME280;4676;42.678;23.244;2022-08-19T09:13:42;93931.41;;;30.03;41.81
9277;BME280;4676;42.678;23.244;2022-08-19T09:16:13;93934.75;;;29.97;40.18
9277;BME280;4676;42.678;23.244;2022-08-19T09:18:42;93922.75;;;29.88;41.08
9277;BME280;4676;42.678;23.244;2022-08-19T09:21:11;93921.22;;;29.94;42.08
9277;BME280;4676;42.678;23.244;2022-08-19T09:23:38;93916.63;;;29.96;41.42
9277;BME280;4676;42.678;23.244;2022-08-19T09:26:07;93919.22;;;29.96;41.24
9277;BME280;4676;42.678;23.244;2022-08-19T09:28:35;93918.41;;;30.10;43.69
9277;BME280;4676;42.678;23.244;2022-08-19T09:31:02;93878.06;;;29.98;40.33
9277;BME280;4676;42.678;23.244;2022-08-19T09:33:29;93911.84;;;30.35;43.50
9277;BME280;4676;42.678;23.244;2022-08-19T09:36:04;93916.38;;;30.62;40.37
9277;BME280;4676;42.678;23.244;2022-08-19T09:38:34;93905.31;;;30.60;38.50
9277;BME280;4676;42.678;23.244;2022-08-19T09:41:03;93890.09;;;30.49;40.46
9277;BME280;4676;42.678;23.244;2022-08-19T09:43:31;93906.19;;;30.67;40.00
9277;BME280;4676;42.678;23.244;2022-08-19T09:45:57;93913.69;;;30.77;38.85
9277;BME280;4676;42.678;23.244;2022-08-19T09:48:25;93902.84;;;30.80;37.92
9277;BME280;4676;42.678;23.244;2022-08-19T09:50:52;93912.22;;;30.89;38.88
9277;BME280;4676;42.678;23.244;2022-08-19T09:53:19;93909.16;;;30.86;38.10
9277;BME280;4676;42.678;23.244;2022-08-19T09:55:49;93915.78;;;30.82;36.38
9277;BME280;4676;42.678;23.244;2022-08-19T09:58:16;93908.91;;;30.81;37.25
9277;BME280;4676;42.678;23.244;2022-08-19T10:00:43;93905.91;;;30.62;37.13
9277;BME280;4676;42.678;23.244;2022-08-19T10:03:10;93893.91;;;30.68;37.53
9277;BME280;4676;42.678;23.244;2022-08-19T10:05:37;93892.16;;;30.54;36.99
9277;BME280;4676;42.678;23.244;2022-08-19T10:08:18;93892.88;;;30.48;40.41
9277;BME280;4676;42.678;23.244;2022-08-19T10:10:45;93891.72;;;30.50;35.78
9277;BME280;4676;42.678;23.244;2022-08-19T10:13:17;93878.44;;;30.52;35.73
9277;BME280;4676;42.678;23.244;2022-08-19T10:15:47;93888.84;;;30.66;36.40
9277;BME280;4676;42.678;23.244;2022-08-19T10:18:16;93882.63;;;30.67;35.82
9277;BME280;4676;42.678;23.244;2022-08-19T10:20:43;93888.94;;;30.80;36.00
9277;BME280;4676;42.678;23.244;2022-08-19T10:23:11;93889.22;;;30.85;35.61
9277;BME280;4676;42.678;23.244;2022-08-19T10:25:38;93871.22;;;30.75;36.10
9277;BME280;4676;42.678;23.244;2022-08-19T10:28:05;93882.81;;;30.94;35.27
9277;BME280;4676;42.678;23.244;2022-08-19T10:30:35;93876.72;;;31.08;35.19
9277;BME280;4676;42.678;23.244;2022-08-19T10:33:02;93876.69;;;31.01;34.13
9277;BME280;4676;42.678;23.244;2022-08-19T10:35:28;93876.72;;;31.08;35.56
9277;BME280;4676;42.678;23.244;2022-08-19T10:37:55;93876.13;;;31.06;36.50
9277;BME280;4676;42.678;23.244;2022-08-19T10:40:25;93872.31;;;31.08;36.70
9277;BME280;4676;42.678;23.244;2022-08-19T10:42:52;93871.56;;;31.21;33.81
9277;BME280;4676;42.678;23.244;2022-08-19T10:45:19;93869.16;;;31.19;35.19
9277;BME280;4676;42.678;23.244;2022-08-19T10:47:48;93867.16;;;31.21;36.13
9277;BME280;4676;42.678;23.244;2022-08-19T10:50:15;93865.69;;;31.12;35.00
9277;BME280;4676;42.678;23.244;2022-08-19T10:53:03;93861.47;;;31.18;36.42
9277;BME280;4676;42.678;23.244;2022-08-19T10:55:31;93867.19;;;31.28;34.89
9277;BME280;4676;42.678;23.244;2022-08-19T10:58:17;93863.44;;;31.37;37.40
9277;BME280;4676;42.678;23.244;2022-08-19T11:00:51;93865.38;;;31.56;34.39
9277;BME280;4676;42.678;23.244;2022-08-19T11:03:21;93875.66;;;31.58;34.94
9277;BME280;4676;42.678;23.244;2022-08-19T11:05:57;93868.00;;;31.56;35.48
9277;BME280;4676;42.678;23.244;2022-08-19T11:08:24;93861.09;;;31.49;34.89
9277;BME280;4676;42.678;23.244;2022-08-19T11:10:53;93865.53;;;31.48;34.24
9277;BME280;4676;42.678;23.244;2022-08-19T11:13:22;93857.66;;;31.48;34.60
9277;BME280;4676;42.678;23.244;2022-08-19T11:15:57;93859.25;;;31.49;34.07
9277;BME280;4676;42.678;23.244;2022-08-19T11:18:25;93838.47;;;31.41;36.01
9277;BME280;4676;42.678;23.244;2022-08-19T11:20:52;93854.81;;;31.50;35.44
9277;BME280;4676;42.678;23.244;2022-08-19T11:23:19;93848.88;;;31.56;34.89
9277;BME280;4676;42.678;23.244;2022-08-19T11:25:46;93834.53;;;31.52;36.23
9277;BME280;4676;42.678;23.244;2022-08-19T11:28:13;93846.66;;;31.59;35.40
9277;BME280;4676;42.678;23.244;2022-08-19T11:30:40;93844.91;;;31.73;34.81
9277;BME280;4676;42.678;23.244;2022-08-19T11:33:07;93842.50;;;31.85;36.08
9277;BME280;4676;42.678;23.244;2022-08-19T11:35:39;93840.56;;;32.00;32.94
9277;BME280;4676;42.678;23.244;2022-08-19T11:38:06;93835.13;;;32.01;34.04
9277;BME280;4676;42.678;23.244;2022-08-19T11:40:33;93835.53;;;32.05;34.28
9277;BME280;4676;42.678;23.244;2022-08-19T11:43:00;93831.75;;;32.14;34.04
9277;BME280;4676;42.678;23.244;2022-08-19T11:45:27;93830.78;;;32.22;33.65
9277;BME280;4676;42.678;23.244;2022-08-19T11:47:55;93830.53;;;32.16;33.84
9277;BME280;4676;42.678;23.244;2022-08-19T11:50:24;93829.53;;;32.11;35.27
9277;BME280;4676;42.678;23.244;2022-08-19T11:52:54;93822.47;;;32.11;34.07
9277;BME280;4676;42.678;23.244;2022-08-19T11:55:22;93827.69;;;32.05;33.10
9277;BME280;4676;42.678;23.244;2022-08-19T11:57:49;93827.03;;;32.03;34.19
9277;BME280;4676;42.678;23.244;2022-08-19T12:00:17;93819.38;;;31.95;35.32
9277;BME280;4676;42.678;23.244;2022-08-19T12:02:44;93823.19;;;31.99;35.90
9277;BME280;4676;42.678;23.244;2022-08-19T12:05:11;93812.94;;;31.97;34.92
9277;BME280;4676;42.678;23.244;2022-08-19T12:07:38;93812.81;;;32.12;33.82
9277;BME280;4676;42.678;23.244;2022-08-19T12:10:10;93805.31;;;32.09;34.08
9277;BME280;4676;42.678;23.244;2022-08-19T12:12:37;93804.25;;;32.03;35.16
9277;BME280;4676;42.678;23.244;2022-08-19T12:15:08;93803.25;;;32.04;34.27
9277;BME280;4676;42.678;23.244;2022-08-19T12:17:36;93802.44;;;32.04;34.28
9277;BME280;4676;42.678;23.244;2022-08-19T12:20:04;93802.50;;;32.10;37.37
9277;BME280;4676;42.678;23.244;2022-08-19T12:22:31;93800.69;;;32.17;33.83
9277;BME280;4676;42.678;23.244;2022-08-19T12:24:58;93792.00;;;32.17;33.66
9277;BME280;4676;42.678;23.244;2022-08-19T12:27:26;93789.78;;;32.14;33.41
9277;BME280;4676;42.678;23.244;2022-08-19T12:29:53;93790.59;;;32.14;34.48
9277;BME280;4676;42.678;23.244;2022-08-19T12:32:20;93791.59;;;32.20;33.30
9277;BME280;4676;42.678;23.244;2022-08-19T12:34:47;93787.56;;;32.17;36.40
9277;BME280;4676;42.678;23.244;2022-08-19T12:37:13;93783.34;;;32.16;35.83
9277;BME280;4676;42.678;23.244;2022-08-19T12:39:42;93781.13;;;32.20;36.77
9277;BME280;4676;42.678;23.244;2022-08-19T12:42:09;93776.69;;;32.34;32.86
9277;BME280;4676;42.678;23.244;2022-08-19T12:44:39;93769.84;;;32.46;33.70
9277;BME280;4676;42.678;23.244;2022-08-19T12:47:07;93775.72;;;32.54;34.56
9277;BME280;4676;42.678;23.244;2022-08-19T12:49:34;93773.50;;;32.58;33.81
9277;BME280;4676;42.678;23.244;2022-08-19T12:52:03;93772.69;;;32.51;35.80
9277;BME280;4676;42.678;23.244;2022-08-19T12:54:30;93733.31;;;32.25;33.75
9277;BME280;4676;42.678;23.244;2022-08-19T12:56:57;93765.59;;;32.45;34.35
9277;BME280;4676;42.678;23.244;2022-08-19T12:59:25;93761.75;;;32.41;36.88
9277;BME280;4676;42.678;23.244;2022-08-19T13:01:53;93761.16;;;32.45;35.14
9277;BME280;4676;42.678;23.244;2022-08-19T13:04:20;93760.34;;;32.51;34.87
9277;BME280;4676;42.678;23.244;2022-08-19T13:06:46;93758.75;;;32.57;35.87
9277;BME280;4676;42.678;23.244;2022-08-19T13:09:13;93760.19;;;32.59;34.83
9277;BME280;4676;42.678;23.244;2022-08-19T13:11:40;93753.31;;;32.72;36.69
9277;BME280;4676;42.678;23.244;2022-08-19T13:14:09;93752.69;;;32.70;36.28
9277;BME280;4676;42.678;23.244;2022-08-19T13:16:36;93749.66;;;32.73;37.06